sensor_id;sensor_type;location;lat;lon;timestamp;pressure;altitude;pressure_sealevel;temperature;humidity
33913;BME280;20200;52.084;5.224;2023-02-26T00:03:03;152345.0;;;14.21;32.39
33913;BME280;20200;52.084;5.224;2023-02-26T00:04:40;152363.0;;;14.28;32.31
33913;BME280;20200;52.084;5.224;2023-02-26T00:06:17;152320.0;;;14.11;32.5
33913;BME280;20200;52.084;5.224;2023-02-26T00:07:54;152383.0;;;14.36;32.21
33913;BME280;20200;52.084;5.224;2023-02-26T00:11:09;152230.0;;;13.75;32.94
33913;BME280;20200;52.084;5.224;2023-02-26T00:12:48;152159.0;;;13.47;33.47
33913;BME280;20200;52.084;5.224;2023-02-26T00:14:24;151947.0;;;12.63;34.49
33913;BME280;20200;52.084;5.224;2023-02-26T00:17:56;152012.0;;;12.89;33.87
33913;BME280;20200;52.084;5.224;2023-02-26T00:19:34;151933.0;;;12.58;33.92
33913;BME280;20200;52.084;5.224;2023-02-26T00:21:16;151999.0;;;12.83;33.65
33913;BME280;20200;52.084;5.224;2023-02-26T00:22:52;151999.0;;;12.83;33.42
33913;BME280;20200;52.084;5.224;2023-02-26T00:24:29;151984.0;;;12.77;33.46
33913;BME280;20200;52.084;5.224;2023-02-26T00:27:42;152004.0;;;12.85;33.29
33913;BME280;20200;52.084;5.224;2023-02-26T00:29:19;152006.0;;;12.86;33.21
33913;BME280;20200;52.084;5.224;2023-02-26T00:30:56;151966.0;;;12.7;33.12
33913;BME280;20200;52.084;5.224;2023-02-26T00:34:11;151870.0;;;12.32;33.86
33913;BME280;20200;52.084;5.224;2023-02-26T00:35:52;152010.0;;;12.88;32.99
33913;BME280;20200;52.084;5.224;2023-02-26T00:37:51;152042.0;;;13.0;32.29
33913;BME280;20200;52.084;5.224;2023-02-26T00:39:39;152104.0;;;13.25;31.89
33913;BME280;20200;52.084;5.224;2023-02-26T00:41:22;151969.0;;;12.72;32.46
33913;BME280;20200;52.084;5.224;2023-02-26T00:44:36;151868.0;;;12.31;32.87
33913;BME280;20200;52.084;5.224;2023-02-26T00:46:19;151877.0;;;12.35;33.03
33913;BME280;20200;52.084;5.224;2023-02-26T00:48:29;151962.0;;;12.68;32.58
33913;BME280;20200;52.084;5.224;2023-02-26T00:50:16;151900.0;;;12.44;32.37
33913;BME280;20200;52.084;5.224;2023-02-26T00:51:55;152015.0;;;12.9;31.94
33913;BME280;20200;52.084;5.224;2023-02-26T00:55:20;152112.0;;;13.28;31.42
33913;BME280;20200;52.084;5.224;2023-02-26T00:56:58;151851.0;;;12.24;32.21
33913;BME280;20200;52.084;5.224;2023-02-26T00:58:34;152050.0;;;13.04;31.51
33913;BME280;20200;52.084;5.224;2023-02-26T01:00:11;152237.0;;;13.78;30.33
33913;BME280;20200;52.084;5.224;2023-02-26T01:03:27;152101.0;;;13.24;30.91
33913;BME280;20200;52.084;5.224;2023-02-26T01:05:07;152004.0;;;12.85;31.67
33913;BME280;20200;52.084;5.224;2023-02-26T01:06:47;152129.0;;;13.35;30.88
33913;BME280;20200;52.084;5.224;2023-02-26T01:08:30;152108.0;;;13.27;30.68
33913;BME280;20200;52.084;5.224;2023-02-26T01:11:48;151945.0;;;12.62;31.57
33913;BME280;20200;52.084;5.224;2023-02-26T01:13:25;152045.0;;;13.02;31.29
33913;BME280;20200;52.084;5.224;2023-02-26T01:15:03;151956.0;;;12.66;31.5
33913;BME280;20200;52.084;5.224;2023-02-26T01:18:31;152026.0;;;12.94;31.39
33913;BME280;20200;52.084;5.224;2023-02-26T01:20:16;151994.0;;;12.81;31.02
33913;BME280;20200;52.084;5.224;2023-02-26T01:22:00;152022.0;;;12.92;31.13
33913;BME280;20200;52.084;5.224;2023-02-26T01:23:40;152060.0;;;13.07;30.86
33913;BME280;20200;52.084;5.224;2023-02-26T01:25:24;151962.0;;;12.68;31.01
33913;BME280;20200;52.084;5.224;2023-02-26T01:28:39;152068.0;;;13.11;30.52
33913;BME280;20200;52.084;5.224;2023-02-26T01:30:16;152132.0;;;13.36;30.15
33913;BME280;20200;52.084;5.224;2023-02-26T01:31:56;152162.0;;;13.48;30.07
33913;BME280;20200;52.084;5.224;2023-02-26T01:33:40;152164.0;;;13.49;29.99
33913;BME280;20200;52.084;5.224;2023-02-26T01:37:20;152091.0;;;13.2;30.36
33913;BME280;20200;52.084;5.224;2023-02-26T01:39:13;151976.0;;;12.74;30.87
33913;BME280;20200;52.084;5.224;2023-02-26T01:41:29;151978.0;;;12.75;30.56
33913;BME280;20200;52.084;5.224;2023-02-26T01:43:11;152108.0;;;13.27;30.34
33913;BME280;20200;52.084;5.224;2023-02-26T01:44:55;152014.0;;;12.89;30.55
33913;BME280;20200;52.084;5.224;2023-02-26T01:46:38;151867.0;;;12.31;31.13
33913;BME280;20200;52.084;5.224;2023-02-26T01:48:35;151940.0;;;12.6;31.1
33913;BME280;20200;52.084;5.224;2023-02-26T01:50:15;151969.0;;;12.72;30.76
33913;BME280;20200;52.084;5.224;2023-02-26T01:53:33;151904.0;;;12.45;30.94
33913;BME280;20200;52.084;5.224;2023-02-26T01:55:10;151897.0;;;12.43;30.94
33913;BME280;20200;52.084;5.224;2023-02-26T01:56:49;151897.0;;;12.43;31.05
33913;BME280;20200;52.084;5.224;2023-02-26T02:00:10;151985.0;;;12.78;30.42
33913;BME280;20200;52.084;5.224;2023-02-26T02:01:47;151870.0;;;12.32;31.04
33913;BME280;20200;52.084;5.224;2023-02-26T02:03:25;151958.0;;;12.67;30.71
33913;BME280;20200;52.084;5.224;2023-02-26T02:05:11;151919.0;;;12.51;30.89
33913;BME280;20200;52.084;5.224;2023-02-26T02:08:29;151844.0;;;12.21;31.49
33913;BME280;20200;52.084;5.224;2023-02-26T02:10:09;151805.0;;;12.06;31.48
33913;BME280;20200;52.084;5.224;2023-02-26T02:11:59;151729.0;;;11.76;31.7
33913;BME280;20200;52.084;5.224;2023-02-26T02:13:55;151861.0;;;12.28;31.13
33913;BME280;20200;52.084;5.224;2023-02-26T02:15:40;151668.0;;;11.51;31.81
33913;BME280;20200;52.084;5.224;2023-02-26T02:19:23;151692.0;;;11.61;31.74
33913;BME280;20200;52.084;5.224;2023-02-26T02:21:26;151783.0;;;11.97;31.24
33913;BME280;20200;52.084;5.224;2023-02-26T02:23:32;151874.0;;;12.33;30.84
33913;BME280;20200;52.084;5.224;2023-02-26T02:25:30;151642.0;;;11.41;31.79
33913;BME280;20200;52.084;5.224;2023-02-26T02:27:17;151780.0;;;11.96;31.16
33913;BME280;20200;52.084;5.224;2023-02-26T02:29:14;151733.0;;;11.77;31.04
33913;BME280;20200;52.084;5.224;2023-02-26T02:31:05;151746.0;;;11.82;30.88
33913;BME280;20200;52.084;5.224;2023-02-26T02:32:46;151800.0;;;12.04;30.7
33913;BME280;20200;52.084;5.224;2023-02-26T02:34:29;151856.0;;;12.26;30.32
33913;BME280;20200;52.084;5.224;2023-02-26T02:37:58;151705.0;;;11.66;30.95
33913;BME280;20200;52.084;5.224;2023-02-26T02:39:41;151786.0;;;11.99;30.46
33913;BME280;20200;52.084;5.224;2023-02-26T02:41:25;151847.0;;;12.23;30.06
33913;BME280;20200;52.084;5.224;2023-02-26T02:43:13;151855.0;;;12.26;29.89
33913;BME280;20200;52.084;5.224;2023-02-26T02:44:54;151857.0;;;12.27;29.87
33913;BME280;20200;52.084;5.224;2023-02-26T02:48:17;151972.0;;;12.73;29.47
33913;BME280;20200;52.084;5.224;2023-02-26T02:50:02;151974.0;;;12.73;29.29
33913;BME280;20200;52.084;5.224;2023-02-26T02:51:46;151890.0;;;12.4;29.87
33913;BME280;20200;52.084;5.224;2023-02-26T02:53:32;151913.0;;;12.49;29.36
33913;BME280;20200;52.084;5.224;2023-02-26T02:55:13;151947.0;;;12.63;29.24
33913;BME280;20200;52.084;5.224;2023-02-26T02:58:38;151937.0;;;12.59;29.29
33913;BME280;20200;52.084;5.224;2023-02-26T03:02:01;151906.0;;;12.46;29.32
33913;BME280;20200;52.084;5.224;2023-02-26T03:03:46;151766.0;;;11.91;29.59
33913;BME280;20200;52.084;5.224;2023-02-26T03:07:04;151880.0;;;12.36;29.45
33913;BME280;20200;52.084;5.224;2023-02-26T03:08:40;151899.0;;;12.44;29.16
33913;BME280;20200;52.084;5.224;2023-02-26T03:10:19;151876.0;;;12.34;29.2
33913;BME280;20200;52.084;5.224;2023-02-26T03:11:56;151915.0;;;12.5;28.93
33913;BME280;20200;52.084;5.224;2023-02-26T03:15:10;151969.0;;;12.72;28.64
33913;BME280;20200;52.084;5.224;2023-02-26T03:17:01;151946.0;;;12.62;28.82
33913;BME280;20200;52.084;5.224;2023-02-26T03:18:58;152028.0;;;12.95;28.38
33913;BME280;20200;52.084;5.224;2023-02-26T03:20:45;152014.0;;;12.89;28.32
33913;BME280;20200;52.084;5.224;2023-02-26T03:22:39;151915.0;;;12.5;28.47
33913;BME280;20200;52.084;5.224;2023-02-26T03:26:09;151925.0;;;12.54;28.72
33913;BME280;20200;52.084;5.224;2023-02-26T03:27:54;151871.0;;;12.32;28.78
33913;BME280;20200;52.084;5.224;2023-02-26T03:29:46;151857.0;;;12.27;29.03
33913;BME280;20200;52.084;5.224;2023-02-26T03:31:30;151908.0;;;12.47;28.41
33913;BME280;20200;52.084;5.224;2023-02-26T03:33:12;151968.0;;;12.71;28.27
33913;BME280;20200;52.084;5.224;2023-02-26T03:34:54;151744.0;;;11.82;29.25
33913;BME280;20200;52.084;5.224;2023-02-26T03:38:28;151784.0;;;11.98;29.21
33913;BME280;20200;52.084;5.224;2023-02-26T03:40:16;151813.0;;;12.09;29.2
33913;BME280;20200;52.084;5.224;2023-02-26T03:41:59;151802.0;;;12.05;29.23
33913;BME280;20200;52.084;5.224;2023-02-26T03:43:43;151794.0;;;12.02;28.92
33913;BME280;20200;52.084;5.224;2023-02-26T03:45:25;151723.0;;;11.73;29.3
33913;BME280;20200;52.084;5.224;2023-02-26T03:48:47;151658.0;;;11.48;29.43
33913;BME280;20200;52.084;5.224;2023-02-26T03:50:31;151710.0;;;11.68;29.25
33913;BME280;20200;52.084;5.224;2023-02-26T03:52:08;151777.0;;;11.95;28.87
33913;BME280;20200;52.084;5.224;2023-02-26T03:53:49;151688.0;;;11.6;29.19
33913;BME280;20200;52.084;5.224;2023-02-26T03:57:11;151804.0;;;12.06;29.13
33913;BME280;20200;52.084;5.224;2023-02-26T03:58:48;151839.0;;;12.19;28.64
33913;BME280;20200;52.084;5.224;2023-02-26T04:00:25;151909.0;;;12.48;28.29
33913;BME280;20200;52.084;5.224;2023-02-26T04:02:04;151906.0;;;12.46;28.3
33913;BME280;20200;52.084;5.224;2023-02-26T04:05:31;151939.0;;;12.59;28.32
33913;BME280;20200;52.084;5.224;2023-02-26T04:07:12;151872.0;;;12.33;28.64
33913;BME280;20200;52.084;5.224;2023-02-26T04:08:50;151748.0;;;11.83;29.05
33913;BME280;20200;52.084;5.224;2023-02-26T04:10:31;151674.0;;;11.54;29.42
33913;BME280;20200;52.084;5.224;2023-02-26T04:13:48;151674.0;;;11.54;29.39
33913;BME280;20200;52.084;5.224;2023-02-26T04:15:25;151686.0;;;11.59;29.12
33913;BME280;20200;52.084;5.224;2023-02-26T04:17:01;151848.0;;;12.23;28.34
33913;BME280;20200;52.084;5.224;2023-02-26T04:20:14;151747.0;;;11.83;28.73
33913;BME280;20200;52.084;5.224;2023-02-26T04:21:51;151792.0;;;12.01;28.62
33913;BME280;20200;52.084;5.224;2023-02-26T04:23:28;151771.0;;;11.93;28.75
33913;BME280;20200;52.084;5.224;2023-02-26T04:25:05;151673.0;;;11.53;29.06
33913;BME280;20200;52.084;5.224;2023-02-26T04:28:18;151798.0;;;12.03;28.57
33913;BME280;20200;52.084;5.224;2023-02-26T04:29:54;151644.0;;;11.42;29.15
33913;BME280;20200;52.084;5.224;2023-02-26T04:31:30;151629.0;;;11.36;29.46
33913;BME280;20200;52.084;5.224;2023-02-26T04:34:42;151695.0;;;11.62;29.13
33913;BME280;20200;52.084;5.224;2023-02-26T04:36:19;151669.0;;;11.52;29.22
33913;BME280;20200;52.084;5.224;2023-02-26T04:37:56;151716.0;;;11.71;29.06
33913;BME280;20200;52.084;5.224;2023-02-26T04:41:09;151828.0;;;12.15;28.32
33913;BME280;20200;52.084;5.224;2023-02-26T04:42:45;151766.0;;;11.9;28.55
33913;BME280;20200;52.084;5.224;2023-02-26T04:44:21;151634.0;;;11.38;29.13
33913;BME280;20200;52.084;5.224;2023-02-26T04:45:57;151759.0;;;11.88;28.41
33913;BME280;20200;52.084;5.224;2023-02-26T04:49:10;151763.0;;;11.89;28.64
33913;BME280;20200;52.084;5.224;2023-02-26T04:50:46;151660.0;;;11.48;29.1
33913;BME280;20200;52.084;5.224;2023-02-26T04:52:23;151784.0;;;11.98;28.41
33913;BME280;20200;52.084;5.224;2023-02-26T04:55:36;151874.0;;;12.34;28.02
33913;BME280;20200;52.084;5.224;2023-02-26T04:57:14;151888.0;;;12.39;27.9
33913;BME280;20200;52.084;5.224;2023-02-26T04:58:49;151854.0;;;12.25;28.26
33913;BME280;20200;52.084;5.224;2023-02-26T05:02:03;151926.0;;;12.54;27.83
33913;BME280;20200;52.084;5.224;2023-02-26T05:03:40;151954.0;;;12.65;27.61
33913;BME280;20200;52.084;5.224;2023-02-26T05:05:17;151851.0;;;12.24;28.05
33913;BME280;20200;52.084;5.224;2023-02-26T05:06:54;151950.0;;;12.64;27.48
33913;BME280;20200;52.084;5.224;2023-02-26T05:10:10;151862.0;;;12.29;28.1
33913;BME280;20200;52.084;5.224;2023-02-26T05:11:46;151885.0;;;12.38;28.06
33913;BME280;20200;52.084;5.224;2023-02-26T05:13:24;151854.0;;;12.25;28.23
33913;BME280;20200;52.084;5.224;2023-02-26T05:16:38;151955.0;;;12.66;27.86
33913;BME280;20200;52.084;5.224;2023-02-26T05:18:14;151823.0;;;12.13;28.07
33913;BME280;20200;52.084;5.224;2023-02-26T05:19:50;151745.0;;;11.82;28.3
33913;BME280;20200;52.084;5.224;2023-02-26T05:23:03;151815.0;;;12.1;28.39
33913;BME280;20200;52.084;5.224;2023-02-26T05:24:40;151730.0;;;11.76;28.74
33913;BME280;20200;52.084;5.224;2023-02-26T05:26:17;151704.0;;;11.66;28.88
33913;BME280;20200;52.084;5.224;2023-02-26T05:27:53;151759.0;;;11.88;28.55
33913;BME280;20200;52.084;5.224;2023-02-26T05:31:06;151656.0;;;11.47;29.1
33913;BME280;20200;52.084;5.224;2023-02-26T05:32:43;151877.0;;;12.35;27.98
33913;BME280;20200;52.084;5.224;2023-02-26T05:34:20;151681.0;;;11.57;28.68
33913;BME280;20200;52.084;5.224;2023-02-26T05:37:32;151801.0;;;12.05;28.24
33913;BME280;20200;52.084;5.224;2023-02-26T05:39:08;151659.0;;;11.48;29.06
33913;BME280;20200;52.084;5.224;2023-02-26T05:40:45;151688.0;;;11.59;28.79
33913;BME280;20200;52.084;5.224;2023-02-26T05:43:57;151625.0;;;11.34;29.13
33913;BME280;20200;52.084;5.224;2023-02-26T05:45:34;151673.0;;;11.53;28.82
33913;BME280;20200;52.084;5.224;2023-02-26T05:47:11;151736.0;;;11.79;28.38
33913;BME280;20200;52.084;5.224;2023-02-26T05:48:47;151743.0;;;11.81;28.3
33913;BME280;20200;52.084;5.224;2023-02-26T05:51:59;151665.0;;;11.5;28.7
33913;BME280;20200;52.084;5.224;2023-02-26T05:53:36;151583.0;;;11.18;28.89
33913;BME280;20200;52.084;5.224;2023-02-26T05:55:12;151558.0;;;11.08;29.21
33913;BME280;20200;52.084;5.224;2023-02-26T05:58:25;151614.0;;;11.3;29.09
33913;BME280;20200;52.084;5.224;2023-02-26T06:00:03;151603.0;;;11.25;29.24
33913;BME280;20200;52.084;5.224;2023-02-26T06:01:39;151696.0;;;11.63;28.56
33913;BME280;20200;52.084;5.224;2023-02-26T06:04:52;151638.0;;;11.39;28.58
33913;BME280;20200;52.084;5.224;2023-02-26T06:06:27;151564.0;;;11.1;28.98
33913;BME280;20200;52.084;5.224;2023-02-26T06:08:05;151667.0;;;11.51;28.67
33913;BME280;20200;52.084;5.224;2023-02-26T06:09:41;151690.0;;;11.6;28.53
33913;BME280;20200;52.084;5.224;2023-02-26T06:12:54;151791.0;;;12.0;28.2
33913;BME280;20200;52.084;5.224;2023-02-26T06:14:30;151715.0;;;11.7;28.41
33913;BME280;20200;52.084;5.224;2023-02-26T06:16:06;151717.0;;;11.71;28.29
33913;BME280;20200;52.084;5.224;2023-02-26T06:19:19;151764.0;;;11.9;28.1
33913;BME280;20200;52.084;5.224;2023-02-26T06:20:55;151729.0;;;11.76;28.16
33913;BME280;20200;52.084;5.224;2023-02-26T06:22:31;151775.0;;;11.94;28.06
33913;BME280;20200;52.084;5.224;2023-02-26T06:25:44;151816.0;;;12.1;27.95
33913;BME280;20200;52.084;5.224;2023-02-26T06:27:20;151821.0;;;12.13;27.85
33913;BME280;20200;52.084;5.224;2023-02-26T06:28:57;151760.0;;;11.88;28.16
33913;BME280;20200;52.084;5.224;2023-02-26T06:30:34;151750.0;;;11.84;28.08
33913;BME280;20200;52.084;5.224;2023-02-26T06:33:46;151609.0;;;11.28;28.93
33913;BME280;20200;52.084;5.224;2023-02-26T06:35:22;151584.0;;;11.18;28.95
33913;BME280;20200;52.084;5.224;2023-02-26T06:36:58;151646.0;;;11.43;28.95
33913;BME280;20200;52.084;5.224;2023-02-26T06:40:11;151655.0;;;11.46;28.83
33913;BME280;20200;52.084;5.224;2023-02-26T06:41:48;151640.0;;;11.4;28.99
33913;BME280;20200;52.084;5.224;2023-02-26T06:43:24;151681.0;;;11.57;28.76
33913;BME280;20200;52.084;5.224;2023-02-26T06:46:36;151589.0;;;11.2;28.92
33913;BME280;20200;52.084;5.224;2023-02-26T06:48:12;151636.0;;;11.39;29.23
33913;BME280;20200;52.084;5.224;2023-02-26T06:49:49;151657.0;;;11.47;28.92
33913;BME280;20200;52.084;5.224;2023-02-26T06:53:02;151591.0;;;11.21;29.47
33913;BME280;20200;52.084;5.224;2023-02-26T06:54:38;151754.0;;;11.86;29.05
33913;BME280;20200;52.084;5.224;2023-02-26T06:56:14;151722.0;;;11.73;29.15
33913;BME280;20200;52.084;5.224;2023-02-26T06:57:50;151680.0;;;11.56;29.46
33913;BME280;20200;52.084;5.224;2023-02-26T07:01:03;151713.0;;;11.69;29.25
33913;BME280;20200;52.084;5.224;2023-02-26T07:02:40;151620.0;;;11.32;29.57
33913;BME280;20200;52.084;5.224;2023-02-26T07:04:16;151535.0;;;10.99;30.02
33913;BME280;20200;52.084;5.224;2023-02-26T07:07:29;151557.0;;;11.07;29.74
33913;BME280;20200;52.084;5.224;2023-02-26T07:09:05;151813.0;;;12.09;29.09
33913;BME280;20200;52.084;5.224;2023-02-26T07:10:42;151780.0;;;11.96;29.03
33913;BME280;20200;52.084;5.224;2023-02-26T07:13:54;151736.0;;;11.79;29.45
33913;BME280;20200;52.084;5.224;2023-02-26T07:15:31;151731.0;;;11.77;29.52
33913;BME280;20200;52.084;5.224;2023-02-26T07:17:08;151748.0;;;11.83;29.39
33913;BME280;20200;52.084;5.224;2023-02-26T07:18:44;151715.0;;;11.7;29.69
33913;BME280;20200;52.084;5.224;2023-02-26T07:21:56;151549.0;;;11.04;30.47
33913;BME280;20200;52.084;5.224;2023-02-26T07:23:33;151563.0;;;11.09;30.4
33913;BME280;20200;52.084;5.224;2023-02-26T07:25:10;151617.0;;;11.31;30.17
33913;BME280;20200;52.084;5.224;2023-02-26T07:28:23;151699.0;;;11.64;29.93
33913;BME280;20200;52.084;5.224;2023-02-26T07:30:01;151668.0;;;11.51;30.1
33913;BME280;20200;52.084;5.224;2023-02-26T07:31:37;151669.0;;;11.52;30.07
33913;BME280;20200;52.084;5.224;2023-02-26T07:34:50;151653.0;;;11.46;30.17
33913;BME280;20200;52.084;5.224;2023-02-26T07:36:26;151581.0;;;11.17;30.79
33913;BME280;20200;52.084;5.224;2023-02-26T07:38:03;151609.0;;;11.28;30.36
33913;BME280;20200;52.084;5.224;2023-02-26T07:39:39;151642.0;;;11.41;30.25
33913;BME280;20200;52.084;5.224;2023-02-26T07:42:51;151597.0;;;11.23;30.54
33913;BME280;20200;52.084;5.224;2023-02-26T07:44:27;151637.0;;;11.39;30.43
33913;BME280;20200;52.084;5.224;2023-02-26T07:46:04;151786.0;;;11.99;29.63
33913;BME280;20200;52.084;5.224;2023-02-26T07:49:16;151749.0;;;11.84;30.08
33913;BME280;20200;52.084;5.224;2023-02-26T07:50:52;151904.0;;;12.46;29.29
33913;BME280;20200;52.084;5.224;2023-02-26T07:52:29;151872.0;;;12.33;29.43
33913;BME280;20200;52.084;5.224;2023-02-26T07:55:41;151644.0;;;11.42;30.35
33913;BME280;20200;52.084;5.224;2023-02-26T07:57:18;151857.0;;;12.27;29.6
33913;BME280;20200;52.084;5.224;2023-02-26T07:58:54;151797.0;;;12.03;29.81
33913;BME280;20200;52.084;5.224;2023-02-26T08:02:06;151846.0;;;12.22;29.68
33913;BME280;20200;52.084;5.224;2023-02-26T08:03:42;151912.0;;;12.49;29.33
33913;BME280;20200;52.084;5.224;2023-02-26T08:05:19;151839.0;;;12.2;29.69
33913;BME280;20200;52.084;5.224;2023-02-26T08:06:55;151923.0;;;12.53;29.43
33913;BME280;20200;52.084;5.224;2023-02-26T08:10:09;151982.0;;;12.77;29.08
33913;BME280;20200;52.084;5.224;2023-02-26T08:11:46;151939.0;;;12.59;29.46
33913;BME280;20200;52.084;5.224;2023-02-26T08:13:22;151877.0;;;12.35;29.65
33913;BME280;20200;52.084;5.224;2023-02-26T08:16:34;151820.0;;;12.12;30.11
33913;BME280;20200;52.084;5.224;2023-02-26T08:18:11;151913.0;;;12.49;29.53
33913;BME280;20200;52.084;5.224;2023-02-26T08:19:48;151854.0;;;12.26;29.55
33913;BME280;20200;52.084;5.224;2023-02-26T08:23:01;151982.0;;;12.77;29.2
33913;BME280;20200;52.084;5.224;2023-02-26T08:24:38;151889.0;;;12.39;29.94
33913;BME280;20200;52.084;5.224;2023-02-26T08:26:14;151867.0;;;12.31;30.19
33913;BME280;20200;52.084;5.224;2023-02-26T08:27:51;151759.0;;;11.88;30.57
33913;BME280;20200;52.084;5.224;2023-02-26T08:31:03;151875.0;;;12.34;30.24
33913;BME280;20200;52.084;5.224;2023-02-26T08:32:40;151961.0;;;12.68;29.76
33913;BME280;20200;52.084;5.224;2023-02-26T08:34:17;151984.0;;;12.77;29.65
33913;BME280;20200;52.084;5.224;2023-02-26T08:37:30;152067.0;;;13.1;29.4
33913;BME280;20200;52.084;5.224;2023-02-26T08:39:07;152032.0;;;12.96;29.36
33913;BME280;20200;52.084;5.224;2023-02-26T08:40:43;151975.0;;;12.74;29.88
33913;BME280;20200;52.084;5.224;2023-02-26T08:43:58;151992.0;;;12.8;29.78
33913;BME280;20200;52.084;5.224;2023-02-26T08:45:35;151934.0;;;12.57;29.95
33913;BME280;20200;52.084;5.224;2023-02-26T08:47:11;151813.0;;;12.09;30.54
33913;BME280;20200;52.084;5.224;2023-02-26T08:48:48;151704.0;;;11.66;31.02
33913;BME280;20200;52.084;5.224;2023-02-26T08:52:01;151853.0;;;12.25;30.01
33913;BME280;20200;52.084;5.224;2023-02-26T08:53:37;151913.0;;;12.49;29.64
33913;BME280;20200;52.084;5.224;2023-02-26T08:55:13;152127.0;;;13.34;28.51
33913;BME280;20200;52.084;5.224;2023-02-26T08:58:26;151992.0;;;12.8;29.15
33913;BME280;20200;52.084;5.224;2023-02-26T09:00:03;151825.0;;;12.14;29.43
33913;BME280;20200;52.084;5.224;2023-02-26T09:01:39;152020.0;;;12.92;28.38
33913;BME280;20200;52.084;5.224;2023-02-26T09:04:51;151929.0;;;12.55;28.12
33913;BME280;20200;52.084;5.224;2023-02-26T09:06:27;151923.0;;;12.53;27.93
33913;BME280;20200;52.084;5.224;2023-02-26T09:08:04;151819.0;;;12.11;27.88
33913;BME280;20200;52.084;5.224;2023-02-26T09:09:40;151912.0;;;12.49;26.95
33913;BME280;20200;52.084;5.224;2023-02-26T09:12:53;151883.0;;;12.37;27.17
33913;BME280;20200;52.084;5.224;2023-02-26T09:14:29;151870.0;;;12.32;27.28
33913;BME280;20200;52.084;5.224;2023-02-26T09:16:06;151951.0;;;12.64;26.99
33913;BME280;20200;52.084;5.224;2023-02-26T09:19:19;152020.0;;;12.92;27.15
33913;BME280;20200;52.084;5.224;2023-02-26T09:20:55;152005.0;;;12.86;26.84
33913;BME280;20200;52.084;5.224;2023-02-26T09:22:31;151951.0;;;12.64;26.62
33913;BME280;20200;52.084;5.224;2023-02-26T09:25:44;151922.0;;;12.53;26.61
33913;BME280;20200;52.084;5.224;2023-02-26T09:27:20;151835.0;;;12.18;27.2
33913;BME280;20200;52.084;5.224;2023-02-26T09:28:57;151941.0;;;12.6;26.97
33913;BME280;20200;52.084;5.224;2023-02-26T09:30:33;151899.0;;;12.43;26.86
33913;BME280;20200;52.084;5.224;2023-02-26T09:33:48;151854.0;;;12.26;26.99
33913;BME280;20200;52.084;5.224;2023-02-26T09:35:24;152144.0;;;13.41;25.88
33913;BME280;20200;52.084;5.224;2023-02-26T09:37:02;152201.0;;;13.64;25.56
33913;BME280;20200;52.084;5.224;2023-02-26T09:40:22;152209.0;;;13.67;25.6
33913;BME280;20200;52.084;5.224;2023-02-26T09:42:27;152162.0;;;13.48;25.96
33913;BME280;20200;52.084;5.224;2023-02-26T09:44:19;152225.0;;;13.73;25.83
33913;BME280;20200;52.084;5.224;2023-02-26T09:46:03;152146.0;;;13.42;25.81
33913;BME280;20200;52.084;5.224;2023-02-26T09:47:43;152066.0;;;13.1;26.14
33913;BME280;20200;52.084;5.224;2023-02-26T09:49:30;152006.0;;;12.86;26.22
33913;BME280;20200;52.084;5.224;2023-02-26T09:53:00;152299.0;;;14.03;25.59
33913;BME280;20200;52.084;5.224;2023-02-26T09:54:43;152218.0;;;13.71;25.76
33913;BME280;20200;52.084;5.224;2023-02-26T09:56:24;152249.0;;;13.83;25.4
33913;BME280;20200;52.084;5.224;2023-02-26T09:58:02;152308.0;;;14.06;25.23
33913;BME280;20200;52.084;5.224;2023-02-26T10:01:22;152211.0;;;13.68;25.98
33913;BME280;20200;52.084;5.224;2023-02-26T10:03:18;152109.0;;;13.27;26.0
33913;BME280;20200;52.084;5.224;2023-02-26T10:05:07;152179.0;;;13.55;25.69
33913;BME280;20200;52.084;5.224;2023-02-26T10:07:02;152396.0;;;14.41;25.29
33913;BME280;20200;52.084;5.224;2023-02-26T10:09:00;152356.0;;;14.25;25.02
33913;BME280;20200;52.084;5.224;2023-02-26T10:10:54;152371.0;;;14.31;25.29
33913;BME280;20200;52.084;5.224;2023-02-26T10:12:38;152414.0;;;14.48;24.97
33913;BME280;20200;52.084;5.224;2023-02-26T10:16:04;152406.0;;;14.45;24.82
33913;BME280;20200;52.084;5.224;2023-02-26T10:17:52;152396.0;;;14.41;24.59
33913;BME280;20200;52.084;5.224;2023-02-26T10:19:49;152309.0;;;14.07;25.09
33913;BME280;20200;52.084;5.224;2023-02-26T10:21:32;152402.0;;;14.44;24.77
33913;BME280;20200;52.084;5.224;2023-02-26T10:23:18;152437.0;;;14.58;24.87
33913;BME280;20200;52.084;5.224;2023-02-26T10:25:01;152352.0;;;14.24;25.05
33913;BME280;20200;52.084;5.224;2023-02-26T10:28:38;152505.0;;;14.84;24.64
33913;BME280;20200;52.084;5.224;2023-02-26T10:30:29;152615.0;;;15.28;24.17
33913;BME280;20200;52.084;5.224;2023-02-26T10:32:20;152572.0;;;15.11;24.01
33913;BME280;20200;52.084;5.224;2023-02-26T10:34:09;152522.0;;;14.91;24.3
33913;BME280;20200;52.084;5.224;2023-02-26T10:36:07;152312.0;;;14.08;24.91
33913;BME280;20200;52.084;5.224;2023-02-26T10:37:48;152312.0;;;14.08;25.19
33913;BME280;20200;52.084;5.224;2023-02-26T10:41:11;152414.0;;;14.49;25.2
33913;BME280;20200;52.084;5.224;2023-02-26T10:42:54;152330.0;;;14.15;25.3
33913;BME280;20200;52.084;5.224;2023-02-26T10:44:37;152404.0;;;14.45;25.24
33913;BME280;20200;52.084;5.224;2023-02-26T10:46:24;152391.0;;;14.39;24.72
33913;BME280;20200;52.084;5.224;2023-02-26T10:48:18;152606.0;;;15.25;24.12
33913;BME280;20200;52.084;5.224;2023-02-26T10:50:02;152729.0;;;15.74;23.82
33913;BME280;20200;52.084;5.224;2023-02-26T10:53:19;152706.0;;;15.64;23.73
33913;BME280;20200;52.084;5.224;2023-02-26T10:55:07;152749.0;;;15.82;23.66
33913;BME280;20200;52.084;5.224;2023-02-26T10:58:54;152765.0;;;15.88;23.58
33913;BME280;20200;52.084;5.224;2023-02-26T11:00:32;152720.0;;;15.7;23.83
33913;BME280;20200;52.084;5.224;2023-02-26T11:04:14;152796.0;;;16.0;23.42
33913;BME280;20200;52.084;5.224;2023-02-26T11:05:52;152437.0;;;14.58;24.49
33913;BME280;20200;52.084;5.224;2023-02-26T11:07:30;152551.0;;;15.03;24.14
33913;BME280;20200;52.084;5.224;2023-02-26T11:09:17;152602.0;;;15.23;24.61
33913;BME280;20200;52.084;5.224;2023-02-26T11:10:58;152606.0;;;15.25;24.34